Time;durP1;ratioP1;P1;durP2;ratioP2;P2;SDS_P1;SDS_P2;PMS_P1;PMS_P2;Temp;Humidity;BMP_temperature;BMP_pressure;BME280_temperature;BME280_humidity;BME280_pressure;Samples;Min_cycle;Max_cycle;Signal;HPM_P1;HPM_P2
2022/05/10 00:01:46;;;;;;;7.47;3.30;;;;;;;;;;5091253;28;20021;-72
2022/05/10 00:04:13;;;;;;;7.03;3.15;;;;;;;;;;5086967;28;20058;-73
2022/05/10 00:06:46;;;;;;;6.97;3.35;;;;;;;;;;5086792;28;20024;-72
2022/05/10 00:09:13;;;;;;;7.80;3.45;;;;;;;;;;5087050;28;20038;-72
2022/05/10 00:11:40;;;;;;;9.30;3.38;;;;;;;;;;5086009;28;20055;-72
2022/05/10 00:14:07;;;;;;;10.82;3.88;;;;;;;;;;5092210;28;20032;-73
2022/05/10 00:16:37;;;;;;;6.57;4.10;;;;;;;;;;5092285;28;20501;-72
2022/05/10 00:19:04;;;;;;;7.15;3.92;;;;;;;;;;5092247;28;20024;-72
2022/05/10 00:21:31;;;;;;;5.32;3.08;;;;;;;;;;5091545;28;20032;-72
2022/05/10 00:23:57;;;;;;;11.43;3.20;;;;;;;;;;5091898;28;20541;-72
2022/05/10 00:26:24;;;;;;;6.75;3.28;;;;;;;;;;5086825;28;20168;-72
2022/05/10 00:28:51;;;;;;;4.28;3.20;;;;;;;;;;5086363;28;20024;-72
2022/05/10 00:31:18;;;;;;;8.27;4.00;;;;;;;;;;5089145;28;20032;-72
2022/05/10 00:33:45;;;;;;;9.85;6.38;;;;;;;;;;5090717;28;20028;-73
2022/05/10 00:36:12;;;;;;;7.00;5.13;;;;;;;;;;5095326;28;20020;-72
2022/05/10 00:38:40;;;;;;;6.07;4.03;;;;;;;;;;5087565;28;20486;-72
2022/05/10 00:41:27;;;;;;;10.65;4.60;;;;;;;;;;5096079;28;20030;-72
2022/05/10 00:44:00;;;;;;;5.85;3.85;;;;;;;;;;5095720;28;20421;-72
2022/05/10 00:46:33;;;;;;;6.20;4.22;;;;;;;;;;5095241;28;20016;-72
2022/05/10 00:49:16;;;;;;;6.05;4.20;;;;;;;;;;5090499;28;20089;-72
2022/05/10 00:51:43;;;;;;;7.13;5.07;;;;;;;;;;5090076;28;20024;-72
2022/05/10 00:54:20;;;;;;;14.10;7.72;;;;;;;;;;5090320;28;20043;-72
2022/05/10 00:56:50;;;;;;;13.13;8.07;;;;;;;;;;5091314;28;20020;-72
2022/05/10 00:59:20;;;;;;;9.90;7.60;;;;;;;;;;5095680;28;20023;-72
2022/05/10 01:01:50;;;;;;;8.57;6.85;;;;;;;;;;5095285;28;20370;-72
2022/05/10 01:04:27;;;;;;;10.85;8.02;;;;;;;;;;5095522;28;20069;-72
2022/05/10 01:06:59;;;;;;;10.60;7.80;;;;;;;;;;5089306;28;20016;-74
2022/05/10 01:09:26;;;;;;;10.10;7.50;;;;;;;;;;5088653;28;20103;-71
2022/05/10 01:11:56;;;;;;;13.57;7.40;;;;;;;;;;5090031;28;20484;-71
2022/05/10 01:14:25;;;;;;;9.80;7.55;;;;;;;;;;5090098;28;20038;-71
2022/05/10 01:16:51;;;;;;;13.80;7.65;;;;;;;;;;5090231;28;20020;-71
2022/05/10 01:19:18;;;;;;;9.80;6.80;;;;;;;;;;5090817;28;20095;-71
2022/05/10 01:21:45;;;;;;;16.20;7.95;;;;;;;;;;5095196;28;20055;-71
2022/05/10 01:24:15;;;;;;;15.98;7.32;;;;;;;;;;5090444;28;20031;-71
2022/05/10 01:27:00;;;;;;;10.07;7.18;;;;;;;;;;5095029;28;20036;-71
2022/05/10 01:29:50;;;;;;;9.85;7.15;;;;;;;;;;5095222;28;20020;-71
2022/05/10 01:35:16;;;;;;;11.85;6.90;;;;;;;;;;5089278;28;20054;-71
2022/05/10 01:37:44;;;;;;;11.93;6.35;;;;;;;;;;5089375;28;20024;-71
2022/05/10 01:40:29;;;;;;;9.50;6.65;;;;;;;;;;5089258;28;20467;-72
2022/05/10 01:42:58;;;;;;;6.97;5.57;;;;;;;;;;5092858;28;20085;-71
2022/05/10 01:45:28;;;;;;;13.02;6.05;;;;;;;;;;5094656;28;20021;-71
2022/05/10 01:48:02;;;;;;;9.30;5.93;;;;;;;;;;5094554;28;20103;-71
2022/05/10 01:50:47;;;;;;;10.40;6.00;;;;;;;;;;5093491;28;20036;-75
2022/05/10 01:53:13;;;;;;;;;;;;;;;;;;5094647;28;20471;-75
2022/05/10 01:55:45;;;;;;;8.48;5.13;;;;;;;;;;5089256;28;19912;-75
2022/05/10 01:58:20;;;;;;;8.53;5.23;;;;;;;;;;5088947;28;20020;-75
2022/05/10 02:00:58;;;;;;;10.30;5.23;;;;;;;;;;5088737;28;20641;-75
2022/05/10 02:03:25;;;;;;;6.77;5.40;;;;;;;;;;5089014;28;20066;-75
2022/05/10 02:05:54;;;;;;;15.03;5.80;;;;;;;;;;5093857;28;20020;-75
2022/05/10 02:08:29;;;;;;;14.20;4.37;;;;;;;;;;5094441;28;20030;-75
2022/05/10 02:10:58;;;;;;;8.80;3.57;;;;;;;;;;5094240;28;20031;-75
2022/05/10 02:13:30;;;;;;;12.57;3.87;;;;;;;;;;5094148;28;20034;-75
2022/05/10 02:16:26;;;;;;;8.43;3.60;;;;;;;;;;5093863;28;20482;-74
2022/05/10 02:19:02;;;;;;;7.60;3.30;;;;;;;;;;5013630;28;20045;-75
2022/05/10 02:21:32;;;;;;;6.43;3.40;;;;;;;;;;5077802;28;20106;-75
2022/05/10 02:24:01;;;;;;;10.07;3.47;;;;;;;;;;5088762;28;20020;-75
2022/05/10 02:26:35;;;;;;;7.53;3.43;;;;;;;;;;5089501;28;20035;-75
2022/05/10 02:29:06;;;;;;;12.07;4.65;;;;;;;;;;5093576;28;20036;-75
2022/05/10 02:33:06;;;;;;;9.23;3.67;;;;;;;;;;5093442;28;20107;-75
2022/05/10 02:34:22;;;;;;;19.80;4.30;;;;;;;;;;5093124;28;20048;-75
2022/05/10 02:36:49;;;;;;;10.83;3.70;;;;;;;;;;5093336;28;20036;-75
2022/05/10 02:39:15;;;;;;;10.10;4.10;;;;;;;;;;5091288;28;20027;-75
2022/05/10 02:41:42;;;;;;;6.53;3.70;;;;;;;;;;5087856;28;20035;-75
2022/05/10 02:44:09;;;;;;;8.93;4.27;;;;;;;;;;5088033;28;20027;-74
2022/05/10 02:46:35;;;;;;;9.57;3.70;;;;;;;;;;5088094;28;20028;-75
2022/05/10 02:49:02;;;;;;;8.87;4.07;;;;;;;;;;5089506;28;20424;-75
2022/05/10 02:51:29;;;;;;;13.73;3.97;;;;;;;;;;5092966;28;20024;-75
2022/05/10 02:53:55;;;;;;;9.53;4.57;;;;;;;;;;5092131;28;20043;-75
2022/05/10 02:56:25;;;;;;;9.90;4.30;;;;;;;;;;5093068;28;20107;-75
2022/05/10 02:58:52;;;;;;;8.03;4.23;;;;;;;;;;5092717;28;20114;-74
2022/05/10 03:01:28;;;;;;;10.43;4.33;;;;;;;;;;5090683;28;20043;-75
2022/05/10 03:03:54;;;;;;;6.00;3.80;;;;;;;;;;5087446;28;20043;-75
2022/05/10 03:06:23;;;;;;;10.70;4.03;;;;;;;;;;5087660;28;20020;-75
2022/05/10 03:08:51;;;;;;;6.27;3.83;;;;;;;;;;5087652;28;20058;-75
2022/05/10 03:11:18;;;;;;;9.20;4.43;;;;;;;;;;5088569;28;20035;-75
2022/05/10 03:13:47;;;;;;;10.10;3.50;;;;;;;;;;5091257;28;20043;-75
2022/05/10 03:16:16;;;;;;;10.47;3.77;;;;;;;;;;5072338;28;20113;-75
2022/05/10 03:18:43;;;;;;;8.07;4.50;;;;;;;;;;5074039;28;20513;-75
2022/05/10 03:21:10;;;;;;;10.70;5.97;;;;;;;;;;5092752;28;20031;-75
2022/05/10 03:23:36;;;;;;;8.23;5.20;;;;;;;;;;5091138;28;20028;-75
2022/05/10 03:26:03;;;;;;;8.37;5.80;;;;;;;;;;5086887;28;20554;-74
2022/05/10 03:28:30;;;;;;;9.93;5.80;;;;;;;;;;5087755;28;20426;-74
2022/05/10 03:30:57;;;;;;;13.43;6.93;;;;;;;;;;5087083;28;20039;-75
2022/05/10 03:33:24;;;;;;;14.10;7.43;;;;;;;;;;5087163;28;20028;-74
2022/05/10 03:35:50;;;;;;;11.77;6.37;;;;;;;;;;5092229;28;20085;-75
2022/05/10 03:38:17;;;;;;;13.10;7.40;;;;;;;;;;5076079;28;20798;-75
2022/05/10 03:40:45;;;;;;;16.23;8.10;;;;;;;;;;5092522;28;20020;-75
2022/05/10 03:43:12;;;;;;;11.23;7.00;;;;;;;;;;5092401;28;20080;-75
2022/05/10 03:45:39;;;;;;;11.67;8.10;;;;;;;;;;5092126;28;20024;-75
2022/05/10 03:48:06;;;;;;;14.90;8.87;;;;;;;;;;5087070;28;20031;-75
2022/05/10 03:50:32;;;;;;;12.70;8.77;;;;;;;;;;5086732;28;20523;-75
2022/05/10 03:52:59;;;;;;;18.70;8.27;;;;;;;;;;5086351;28;20070;-71
2022/05/10 03:55:27;;;;;;;12.60;7.20;;;;;;;;;;5087043;28;20047;-69
2022/05/10 03:57:54;;;;;;;10.83;7.33;;;;;;;;;;5091958;28;20016;-71
2022/05/10 04:00:23;;;;;;;11.73;7.13;;;;;;;;;;5092270;28;20039;-73
2022/05/10 04:02:50;;;;;;;13.70;7.87;;;;;;;;;;5092157;28;20028;-73
2022/05/10 04:05:17;;;;;;;10.33;7.03;;;;;;;;;;5091903;28;20379;-73
2022/05/10 04:07:44;;;;;;;9.40;6.47;;;;;;;;;;5091444;28;20428;-74
2022/05/10 04:10:11;;;;;;;9.13;7.47;;;;;;;;;;5086985;28;20028;-73
2022/05/10 04:12:39;;;;;;;9.43;6.17;;;;;;;;;;5087169;28;20488;-73
2022/05/10 04:15:06;;;;;;;12.80;8.27;;;;;;;;;;5086942;28;20068;-74
2022/05/10 04:17:33;;;;;;;12.97;7.73;;;;;;;;;;5087518;28;20020;-74
2022/05/10 04:20:00;;;;;;;13.80;8.47;;;;;;;;;;5091143;28;20043;-74
2022/05/10 04:22:26;;;;;;;12.67;7.77;;;;;;;;;;5091825;28;20034;-73
2022/05/10 04:24:53;;;;;;;10.53;7.57;;;;;;;;;;5091356;28;20401;-73
2022/05/10 04:27:20;;;;;;;12.20;7.43;;;;;;;;;;5091716;28;20032;-74
2022/05/10 04:29:46;;;;;;;14.40;7.27;;;;;;;;;;5091500;28;20115;-73
2022/05/10 04:32:13;;;;;;;10.03;7.10;;;;;;;;;;5087741;28;20035;-74
2022/05/10 04:34:40;;;;;;;11.03;7.83;;;;;;;;;;5086851;28;20551;-74
2022/05/10 04:37:06;;;;;;;12.97;8.20;;;;;;;;;;5086513;28;20020;-74
2022/05/10 04:42:23;;;;;;;10.37;6.97;;;;;;;;;;5052523;28;20119;-74
2022/05/10 04:44:50;;;;;;;12.47;7.63;;;;;;;;;;5091809;28;20470;-74
2022/05/10 04:47:16;;;;;;;9.80;7.50;;;;;;;;;;5092040;28;20055;-74
2022/05/10 04:49:43;;;;;;;14.33;7.07;;;;;;;;;;5091945;28;20364;-73
2022/05/10 04:52:10;;;;;;;28.10;8.43;;;;;;;;;;5092010;28;20028;-73
2022/05/10 04:54:39;;;;;;;15.30;8.17;;;;;;;;;;5086894;28;20036;-74
2022/05/10 04:57:06;;;;;;;15.50;7.77;;;;;;;;;;5086641;28;20024;-74
2022/05/10 04:59:33;;;;;;;14.13;8.73;;;;;;;;;;5086445;28;20028;-74
2022/05/10 05:02:00;;;;;;;15.33;8.53;;;;;;;;;;5086527;28;20045;-73
2022/05/10 05:04:26;;;;;;;13.87;8.30;;;;;;;;;;5090298;28;20024;-73
2022/05/10 05:06:53;;;;;;;18.67;8.03;;;;;;;;;;5091583;28;20047;-74
2022/05/10 05:09:20;;;;;;;14.17;8.00;;;;;;;;;;5091477;28;20031;-74
2022/05/10 05:11:47;;;;;;;13.67;8.23;;;;;;;;;;5091006;28;20056;-74
2022/05/10 05:14:13;;;;;;;11.70;7.47;;;;;;;;;;5091459;28;20040;-74
2022/05/10 05:16:40;;;;;;;14.33;7.83;;;;;;;;;;5087981;28;20036;-74
2022/05/10 05:19:07;;;;;;;10.60;7.50;;;;;;;;;;5089942;28;20016;-74
2022/05/10 05:21:34;;;;;;;12.63;8.03;;;;;;;;;;5089869;28;20024;-74
2022/05/10 05:24:00;;;;;;;11.43;7.07;;;;;;;;;;5090303;28;20020;-74
2022/05/10 05:26:27;;;;;;;12.13;6.73;;;;;;;;;;5092421;28;20063;-73
2022/05/10 05:28:54;;;;;;;12.50;7.13;;;;;;;;;;5094461;28;20397;-74
2022/05/10 05:31:21;;;;;;;11.90;6.37;;;;;;;;;;5094895;28;20028;-71
2022/05/10 05:33:48;;;;;;;13.90;7.53;;;;;;;;;;5094797;28;20024;-69
2022/05/10 05:36:14;;;;;;;10.37;7.53;;;;;;;;;;5094598;28;20042;-67
2022/05/10 05:38:41;;;;;;;12.93;7.37;;;;;;;;;;5091683;28;20032;-69
2022/05/10 05:41:08;;;;;;;9.30;6.73;;;;;;;;;;5088724;28;20024;-75
2022/05/10 05:43:35;;;;;;;10.93;6.97;;;;;;;;;;5088596;28;20065;-75
2022/05/10 05:46:02;;;;;;;11.40;7.20;;;;;;;;;;5087618;28;20024;-74
2022/05/10 05:48:29;;;;;;;9.50;6.87;;;;;;;;;;5090145;28;20024;-75
2022/05/10 05:50:56;;;;;;;10.57;7.30;;;;;;;;;;5092324;28;20063;-74
2022/05/10 05:53:22;;;;;;;9.63;6.53;;;;;;;;;;5092563;28;20035;-74
2022/05/10 05:55:49;;;;;;;12.97;6.27;;;;;;;;;;5092533;28;20402;-74
2022/05/10 05:58:16;;;;;;;10.77;6.27;;;;;;;;;;5092979;28;20059;-73
2022/05/10 06:00:43;;;;;;;12.67;6.93;;;;;;;;;;5091676;28;20020;-75
2022/05/10 06:03:10;;;;;;;13.23;6.37;;;;;;;;;;5088735;28;20086;-75
2022/05/10 06:05:37;;;;;;;11.60;6.67;;;;;;;;;;5089096;28;20016;-74
2022/05/10 06:08:06;;;;;;;11.77;6.77;;;;;;;;;;5088831;28;20036;-74
2022/05/10 06:10:32;;;;;;;12.17;6.60;;;;;;;;;;5090018;28;20039;-74
2022/05/10 06:13:03;;;;;;;10.33;7.20;;;;;;;;;;5094390;28;20035;-74
2022/05/10 06:15:30;;;;;;;12.37;7.30;;;;;;;;;;5079531;28;20132;-74
2022/05/10 06:17:57;;;;;;;11.53;6.60;;;;;;;;;;5094025;28;20024;-74
2022/05/10 06:20:24;;;;;;;10.87;6.50;;;;;;;;;;5093606;28;20035;-74
2022/05/10 06:22:51;;;;;;;10.00;6.30;;;;;;;;;;5092217;28;20035;-74
2022/05/10 06:25:20;;;;;;;15.30;7.17;;;;;;;;;;5088286;28;20512;-74
2022/05/10 06:27:47;;;;;;;12.63;6.60;;;;;;;;;;5088439;28;20040;-74
2022/05/10 06:30:14;;;;;;;10.17;6.23;;;;;;;;;;5088375;28;20127;-74
2022/05/10 06:32:41;;;;;;;11.33;6.40;;;;;;;;;;5089261;28;20508;-74
2022/05/10 06:35:08;;;;;;;10.10;6.57;;;;;;;;;;5093558;28;20478;-73
2022/05/10 06:40:19;;;;;;;8.32;6.22;;;;;;;;;;5093594;28;20182;-74
2022/05/10 06:42:46;;;;;;;9.80;5.97;;;;;;;;;;5093493;28;20078;-74
2022/05/10 06:45:15;;;;;;;11.20;6.63;;;;;;;;;;5091004;28;20036;-74
2022/05/10 06:47:43;;;;;;;9.13;5.93;;;;;;;;;;5088121;28;20032;-73
2022/05/10 06:50:14;;;;;;;9.83;6.33;;;;;;;;;;5087831;28;20027;-75
2022/05/10 06:52:41;;;;;;;8.57;6.30;;;;;;;;;;5088024;28;20050;-74
2022/05/10 06:55:09;;;;;;;10.47;6.93;;;;;;;;;;5089089;28;20467;-73
2022/05/10 06:57:36;;;;;;;10.50;6.33;;;;;;;;;;5093428;28;20019;-74
2022/05/10 07:00:03;;;;;;;9.70;5.83;;;;;;;;;;5093104;28;20024;-74
2022/05/10 07:02:30;;;;;;;12.17;6.67;;;;;;;;;;5092977;28;20471;-74
2022/05/10 07:04:57;;;;;;;9.80;6.43;;;;;;;;;;5092493;28;20375;-74
2022/05/10 07:07:24;;;;;;;7.77;5.83;;;;;;;;;;5091771;28;20085;-74
2022/05/10 07:09:52;;;;;;;10.60;6.40;;;;;;;;;;5087595;28;20481;-74
2022/05/10 07:12:19;;;;;;;10.03;5.97;;;;;;;;;;5087514;28;20028;-74
2022/05/10 07:14:45;;;;;;;13.43;5.80;;;;;;;;;;5087873;28;20436;-74
2022/05/10 07:17:13;;;;;;;9.20;5.70;;;;;;;;;;5088393;28;20446;-74
2022/05/10 07:19:40;;;;;;;8.53;6.23;;;;;;;;;;5092242;28;20031;-73
2022/05/10 07:22:06;;;;;;;8.97;5.77;;;;;;;;;;5092390;28;20031;-74
2022/05/10 07:24:33;;;;;;;11.50;6.40;;;;;;;;;;5092709;28;20020;-74
2022/05/10 07:27:00;;;;;;;11.20;6.53;;;;;;;;;;5092820;28;20611;-72
2022/05/10 07:29:27;;;;;;;8.83;5.80;;;;;;;;;;5092396;28;20028;-74
2022/05/10 07:31:54;;;;;;;14.80;7.13;;;;;;;;;;5087325;28;20390;-73
2022/05/10 07:34:21;;;;;;;11.27;6.30;;;;;;;;;;5087595;28;20040;-73
2022/05/10 07:36:48;;;;;;;9.40;6.30;;;;;;;;;;5087070;28;20035;-73
2022/05/10 07:39:14;;;;;;;8.63;5.60;;;;;;;;;;5086716;28;20088;-73
2022/05/10 07:41:41;;;;;;;11.77;6.93;;;;;;;;;;5091342;28;20103;-74
2022/05/10 07:44:08;;;;;;;8.80;6.47;;;;;;;;;;5092464;28;20024;-73
2022/05/10 07:46:35;;;;;;;10.27;6.83;;;;;;;;;;5092320;28;20016;-74
2022/05/10 07:49:02;;;;;;;11.63;6.80;;;;;;;;;;5092550;28;20028;-74
2022/05/10 07:51:29;;;;;;;9.40;6.97;;;;;;;;;;5092427;28;20051;-74
2022/05/10 07:53:56;;;;;;;10.10;6.13;;;;;;;;;;5086907;28;20036;-74
2022/05/10 07:56:24;;;;;;;11.60;7.20;;;;;;;;;;5086751;28;20103;-74
2022/05/10 07:58:52;;;;;;;9.33;6.57;;;;;;;;;;5087306;28;20024;-74
2022/05/10 08:01:19;;;;;;;12.37;6.47;;;;;;;;;;5086757;28;20036;-73
2022/05/10 08:03:47;;;;;;;12.33;6.27;;;;;;;;;;5091125;28;20020;-73
2022/05/10 08:06:15;;;;;;;8.57;5.57;;;;;;;;;;5092227;28;20035;-73
2022/05/10 08:08:42;;;;;;;9.60;6.23;;;;;;;;;;5091908;28;20031;-73
2022/05/10 08:11:09;;;;;;;13.10;7.90;;;;;;;;;;5091642;28;20081;-73
2022/05/10 08:13:39;;;;;;;10.70;7.40;;;;;;;;;;5092112;28;20038;-73
2022/05/10 08:16:08;;;;;;;10.97;7.50;;;;;;;;;;5086952;28;20081;-74
2022/05/10 08:18:36;;;;;;;9.57;6.67;;;;;;;;;;5087248;28;20382;-73
2022/05/10 08:21:03;;;;;;;12.80;6.97;;;;;;;;;;5087049;28;20040;-74
2022/05/10 08:23:32;;;;;;;13.90;7.57;;;;;;;;;;5086637;28;20430;-73
2022/05/10 08:25:59;;;;;;;13.97;6.93;;;;;;;;;;5090090;28;20054;-73
2022/05/10 08:28:27;;;;;;;10.57;6.90;;;;;;;;;;5091618;28;20071;-73
2022/05/10 08:30:54;;;;;;;13.43;6.50;;;;;;;;;;5091737;28;20028;-73
2022/05/10 08:33:23;;;;;;;9.00;6.33;;;;;;;;;;5092053;28;20043;-73
2022/05/10 08:35:50;;;;;;;10.73;6.77;;;;;;;;;;5091825;28;20039;-73
2022/05/10 08:38:17;;;;;;;9.13;6.43;;;;;;;;;;5087758;28;20028;-72
2022/05/10 08:40:50;;;;;;;14.97;7.43;;;;;;;;;;5085935;28;20078;-73
2022/05/10 08:43:21;;;;;;;11.43;6.73;;;;;;;;;;5086668;28;20035;-74
2022/05/10 08:45:47;;;;;;;12.53;7.60;;;;;;;;;;5086497;28;20031;-72
2022/05/10 08:48:15;;;;;;;8.50;6.67;;;;;;;;;;5089979;28;20024;-73
2022/05/10 08:50:45;;;;;;;9.13;5.77;;;;;;;;;;5091863;28;20031;-73
2022/05/10 08:53:12;;;;;;;11.57;7.63;;;;;;;;;;5094058;28;20146;-73
2022/05/10 08:55:42;;;;;;;10.23;6.77;;;;;;;;;;5095133;28;20040;-73
2022/05/10 08:58:09;;;;;;;9.43;6.70;;;;;;;;;;5095464;28;20097;-73
2022/05/10 09:00:42;;;;;;;11.70;7.63;;;;;;;;;;5090942;28;20116;-73
2022/05/10 09:03:29;;;;;;;12.57;7.60;;;;;;;;;;5090236;28;20479;-72
2022/05/10 09:06:02;;;;;;;10.87;7.30;;;;;;;;;;5079309;28;20115;-73
2022/05/10 09:08:45;;;;;;;10.50;7.47;;;;;;;;;;5089986;28;20028;-73
2022/05/10 09:11:14;;;;;;;11.80;7.57;;;;;;;;;;5095040;28;20020;-72
2022/05/10 09:13:42;;;;;;;10.50;6.77;;;;;;;;;;5095217;28;20043;-73
2022/05/10 09:16:10;;;;;;;11.07;7.90;;;;;;;;;;5095169;28;20035;-73
2022/05/10 09:18:39;;;;;;;9.07;6.67;;;;;;;;;;5094594;28;20021;-73
2022/05/10 09:21:06;;;;;;;9.27;6.53;;;;;;;;;;5094470;28;20035;-73
2022/05/10 09:23:40;;;;;;;8.70;6.40;;;;;;;;;;5089868;28;20103;-73
2022/05/10 09:26:07;;;;;;;10.93;6.97;;;;;;;;;;5089574;28;20348;-72
2022/05/10 09:28:58;;;;;;;12.20;6.27;;;;;;;;;;5089742;28;20028;-73
2022/05/10 09:36:57;;;;;;;10.23;6.80;;;;;;;;;;5094934;28;20425;-73
2022/05/10 09:39:30;;;;;;;13.03;8.43;;;;;;;;;;5095040;28;20497;-73
2022/05/10 09:41:57;;;;;;;14.20;6.97;;;;;;;;;;5094862;28;20027;-73
2022/05/10 09:44:26;;;;;;;11.63;8.00;;;;;;;;;;5092138;28;20490;-73
2022/05/10 09:47:10;;;;;;;11.37;6.90;;;;;;;;;;5089535;28;20029;-73
2022/05/10 09:49:38;;;;;;;10.77;6.87;;;;;;;;;;5089110;28;20024;-73
2022/05/10 09:52:06;;;;;;;12.23;7.37;;;;;;;;;;5088986;28;20020;-73
2022/05/10 09:54:40;;;;;;;12.03;8.37;;;;;;;;;;5091611;28;20032;-73
2022/05/10 09:57:13;;;;;;;13.80;7.05;;;;;;;;;;5094408;28;20025;-73
2022/05/10 09:59:47;;;;;;;11.97;7.77;;;;;;;;;;5094037;28;20027;-73
2022/05/10 10:02:30;;;;;;;9.97;7.63;;;;;;;;;;5094195;28;20149;-73
2022/05/10 10:04:57;;;;;;;11.33;7.73;;;;;;;;;;5094182;28;20337;-73
2022/05/10 10:07:25;;;;;;;13.60;8.10;;;;;;;;;;5090455;28;20055;-72
2022/05/10 10:09:55;;;;;;;14.03;7.73;;;;;;;;;;5088703;28;20035;-73
2022/05/10 10:12:27;;;;;;;12.43;7.10;;;;;;;;;;5088899;28;20031;-73
2022/05/10 10:14:55;;;;;;;11.43;6.90;;;;;;;;;;5088859;28;20071;-73
2022/05/10 10:17:23;;;;;;;10.73;7.30;;;;;;;;;;5091759;28;20047;-73
2022/05/10 10:19:56;;;;;;;10.30;6.13;;;;;;;;;;5077899;28;20020;-72
2022/05/10 10:22:30;;;;;;;9.93;6.30;;;;;;;;;;5092920;28;20032;-72
2022/05/10 10:24:56;;;;;;;11.00;7.00;;;;;;;;;;5093552;28;20034;-72
2022/05/10 10:27:49;;;;;;;14.10;6.93;;;;;;;;;;5093648;28;20043;-73
2022/05/10 10:30:28;;;;;;;16.13;7.80;;;;;;;;;;5086130;28;20046;-72
2022/05/10 10:33:15;;;;;;;10.33;6.73;;;;;;;;;;5088566;28;20085;-73
2022/05/10 10:35:55;;;;;;;10.43;6.50;;;;;;;;;;5077682;28;20039;-73
2022/05/10 10:38:40;;;;;;;34.93;7.50;;;;;;;;;;5088528;28;20027;-73
2022/05/10 10:41:11;;;;;;;12.38;6.78;;;;;;;;;;5093574;28;20043;-73
2022/05/10 10:43:50;;;;;;;12.83;7.77;;;;;;;;;;5093834;28;20092;-72
2022/05/10 10:46:24;;;;;;;11.43;6.80;;;;;;;;;;5093110;28;20103;-73
2022/05/10 10:48:56;;;;;;;12.33;7.13;;;;;;;;;;5083145;28;20023;-73
2022/05/10 10:51:26;;;;;;;14.23;8.47;;;;;;;;;;5090347;28;20383;-73
2022/05/10 10:53:53;;;;;;;11.73;7.63;;;;;;;;;;5088057;28;20062;-72
2022/05/10 10:56:19;;;;;;;16.43;10.90;;;;;;;;;;5087900;28;20047;-72
2022/05/10 10:58:53;;;;;;;21.90;13.33;;;;;;;;;;5088089;28;20020;-73
2022/05/10 11:01:29;;;;;;;16.10;10.25;;;;;;;;;;5089588;28;20031;-73
2022/05/10 11:04:02;;;;;;;16.60;11.40;;;;;;;;;;5082025;28;20016;-73
2022/05/10 11:06:29;;;;;;;18.90;12.87;;;;;;;;;;5093356;28;20028;-73
2022/05/10 11:09:11;;;;;;;25.30;14.13;;;;;;;;;;5093149;28;20028;-73
2022/05/10 11:11:38;;;;;;;28.43;15.13;;;;;;;;;;5093230;28;20525;-73
2022/05/10 11:14:04;;;;;;;26.23;14.77;;;;;;;;;;5090083;28;20429;-73
2022/05/10 11:16:58;;;;;;;27.97;13.10;;;;;;;;;;5086827;28;20048;-73
2022/05/10 11:19:39;;;;;;;27.87;14.60;;;;;;;;;;5049487;28;20059;-73
2022/05/10 11:22:25;;;;;;;30.67;13.67;;;;;;;;;;5087292;28;20027;-73
2022/05/10 11:25:10;;;;;;;32.60;15.82;;;;;;;;;;5092340;28;20048;-73
2022/05/10 11:27:40;;;;;;;26.63;14.55;;;;;;;;;;5092275;28;20372;-73
2022/05/10 11:30:11;;;;;;;33.43;16.37;;;;;;;;;;5092804;28;20101;-73
2022/05/10 11:32:49;;;;;;;27.87;14.00;;;;;;;;;;5092665;28;20031;-73
2022/05/10 11:35:21;;;;;;;25.87;14.70;;;;;;;;;;5091911;28;20036;-73
2022/05/10 11:37:52;;;;;;;21.73;13.23;;;;;;;;;;5087194;28;20074;-73
2022/05/10 11:40:35;;;;;;;27.13;14.37;;;;;;;;;;5087519;28;20456;-73
2022/05/10 11:43:16;;;;;;;20.50;10.90;;;;;;;;;;5087269;28;20073;-72
2022/05/10 11:45:52;;;;;;;19.20;10.63;;;;;;;;;;5088418;28;20028;-73
2022/05/10 11:48:22;;;;;;;22.37;11.90;;;;;;;;;;5092002;28;20031;-73
2022/05/10 11:54:07;;;;;;;15.27;8.30;;;;;;;;;;5063252;28;20114;-72
2022/05/10 11:56:35;;;;;;;13.40;8.93;;;;;;;;;;5092156;28;20024;-72
2022/05/10 11:59:06;;;;;;;13.20;8.00;;;;;;;;;;5088520;28;20019;-72
2022/05/10 12:01:45;;;;;;;14.63;8.40;;;;;;;;;;5086544;28;20030;-73
2022/05/10 12:04:31;;;;;;;11.73;7.33;;;;;;;;;;5086986;28;20024;-73
2022/05/10 12:06:57;;;;;;;;;;;;;;;;;;5087349;28;20115;-72
2022/05/10 12:09:42;;;;;;;11.17;8.40;;;;;;;;;;5090915;28;19915;-72
2022/05/10 12:12:09;;;;;;;11.80;6.97;;;;;;;;;;5092202;28;20020;-73
2022/05/10 12:21:21;;;;;;;13.67;7.00;;;;;;;;;;5082523;28;20089;-73
2022/05/10 12:24:06;;;;;;;18.00;9.30;;;;;;;;;;5086231;28;20488;-72
2022/05/10 12:26:43;;;;;;;13.68;7.90;;;;;;;;;;5086583;28;20161;-73
2022/05/10 12:29:28;;;;;;;14.83;8.00;;;;;;;;;;5090721;28;20035;-72
2022/05/10 12:31:57;;;;;;;10.13;7.03;;;;;;;;;;5095551;28;20025;-73
2022/05/10 12:34:44;;;;;;;13.73;8.17;;;;;;;;;;5095890;28;20433;-73
2022/05/10 12:37:27;;;;;;;13.77;9.17;;;;;;;;;;5096081;28;20517;-72
2022/05/10 12:40:09;;;;;;;17.73;10.23;;;;;;;;;;5096111;28;20141;-73
2022/05/10 12:42:54;;;;;;;13.77;9.27;;;;;;;;;;5093939;28;20418;-73
2022/05/10 12:45:39;;;;;;;15.82;9.48;;;;;;;;;;5090859;28;20063;-72
2022/05/10 12:48:20;;;;;;;12.50;8.52;;;;;;;;;;5089756;28;20016;-72
2022/05/10 12:51:02;;;;;;;18.23;8.00;;;;;;;;;;5090197;28;20027;-73
2022/05/10 12:53:42;;;;;;;14.23;8.63;;;;;;;;;;5093172;28;20501;-72
2022/05/10 12:56:21;;;;;;;15.77;8.97;;;;;;;;;;5095605;28;20367;-73
2022/05/10 12:59:11;;;;;;;16.20;9.27;;;;;;;;;;5075467;28;20040;-73
2022/05/10 13:01:38;;;;;;;13.10;8.20;;;;;;;;;;5077744;28;20479;-78
2022/05/10 13:04:15;;;;;;;16.33;8.30;;;;;;;;;;5098095;28;20467;-78
2022/05/10 13:07:00;;;;;;;18.77;9.30;;;;;;;;;;5092492;28;20028;-78
2022/05/10 13:09:28;;;;;;;20.15;9.30;;;;;;;;;;5094130;28;20028;-78
2022/05/10 13:12:09;;;;;;;16.33;9.37;;;;;;;;;;5095134;28;20035;-78
2022/05/10 13:14:38;;;;;;;12.07;9.03;;;;;;;;;;5096755;28;20040;-79
2022/05/10 13:17:06;;;;;;;14.07;9.17;;;;;;;;;;5100900;28;20111;-78
2022/05/10 13:19:38;;;;;;;22.33;9.83;;;;;;;;;;5101398;28;20486;-79
2022/05/10 13:22:12;;;;;;;11.07;8.93;;;;;;;;;;5101139;28;20034;-79
2022/05/10 13:24:39;;;;;;;15.73;9.20;;;;;;;;;;5102419;28;20028;-79
2022/05/10 13:27:06;;;;;;;10.93;8.13;;;;;;;;;;5100700;28;20466;-79
2022/05/10 13:29:45;;;;;;;11.50;8.10;;;;;;;;;;5098581;28;20509;-80
2022/05/10 13:32:30;;;;;;;14.43;8.73;;;;;;;;;;5101295;28;20047;-79
2022/05/10 13:35:02;;;;;;;14.95;8.60;;;;;;;;;;5102815;28;20097;-78
2022/05/10 13:37:31;;;;;;;13.77;9.33;;;;;;;;;;5103056;28;20028;-79
2022/05/10 13:40:01;;;;;;;14.27;9.03;;;;;;;;;;5102588;28;20028;-78
2022/05/10 13:42:28;;;;;;;13.87;10.10;;;;;;;;;;5082881;28;20020;-79
2022/05/10 13:44:54;;;;;;;14.07;10.70;;;;;;;;;;5099050;28;20020;-79
2022/05/10 13:47:29;;;;;;;13.37;8.90;;;;;;;;;;5099566;28;20021;-79
2022/05/10 13:49:56;;;;;;;17.17;10.55;;;;;;;;;;5096750;28;20047;-79
2022/05/10 13:52:31;;;;;;;21.20;10.53;;;;;;;;;;5091164;28;20132;-80
2022/05/10 13:55:01;;;;;;;17.93;10.57;;;;;;;;;;5091636;28;20047;-79
2022/05/10 13:57:29;;;;;;;17.50;11.30;;;;;;;;;;5092897;28;20028;-80
2022/05/10 13:59:58;;;;;;;17.37;11.13;;;;;;;;;;5093946;28;20077;-79
2022/05/10 14:02:26;;;;;;;20.93;12.27;;;;;;;;;;5095963;28;20059;-79
2022/05/10 14:04:54;;;;;;;20.20;13.23;;;;;;;;;;5098525;28;20822;-79
2022/05/10 14:07:25;;;;;;;26.33;11.70;;;;;;;;;;5098082;28;20038;-80
2022/05/10 14:09:53;;;;;;;23.90;13.10;;;;;;;;;;5099598;28;20035;-79
2022/05/10 14:12:27;;;;;;;19.20;14.07;;;;;;;;;;5095766;28;20030;-80
2022/05/10 14:14:54;;;;;;;22.52;12.20;;;;;;;;;;5093047;28;20024;-79
2022/05/10 14:17:20;;;;;;;19.33;11.63;;;;;;;;;;5094122;28;20028;-79
2022/05/10 14:19:49;;;;;;;17.93;11.80;;;;;;;;;;5093838;28;20084;-80
2022/05/10 14:22:24;;;;;;;22.77;13.00;;;;;;;;;;5094543;28;20379;-80
2022/05/10 14:24:52;;;;;;;19.17;11.67;;;;;;;;;;5098680;28;20494;-80
2022/05/10 14:27:22;;;;;;;17.67;12.70;;;;;;;;;;5098002;28;20047;-80
2022/05/10 14:29:49;;;;;;;15.77;12.90;;;;;;;;;;5097440;28;20383;-80
2022/05/10 14:32:39;;;;;;;20.77;12.10;;;;;;;;;;5100379;28;20038;-79
2022/05/10 14:35:08;;;;;;;19.40;12.60;;;;;;;;;;5095259;28;20036;-80
2022/05/10 14:37:49;;;;;;;20.27;13.97;;;;;;;;;;5090550;28;20020;-80
2022/05/10 14:40:28;;;;;;;21.10;14.47;;;;;;;;;;5089353;28;20028;-80
2022/05/10 14:42:58;;;;;;;21.37;13.20;;;;;;;;;;5091426;28;20083;-80
2022/05/10 14:45:25;;;;;;;22.57;13.13;;;;;;;;;;5095988;28;20485;-80
2022/05/10 14:47:57;;;;;;;17.30;13.37;;;;;;;;;;5096516;28;20378;-80
2022/05/10 14:50:32;;;;;;;18.57;12.17;;;;;;;;;;5101407;28;20020;-80
2022/05/10 14:53:10;;;;;;;21.27;14.17;;;;;;;;;;5096810;28;20040;-81
2022/05/10 14:55:37;;;;;;;16.43;11.97;;;;;;;;;;5096789;28;20382;-81
2022/05/10 14:58:03;;;;;;;23.80;13.43;;;;;;;;;;5090806;28;20028;-80
2022/05/10 15:00:38;;;;;;;16.80;13.02;;;;;;;;;;5090739;28;20024;-81
2022/05/10 15:03:17;;;;;;;17.58;13.02;;;;;;;;;;5091184;28;20382;-80
2022/05/10 15:05:47;;;;;;;17.50;13.02;;;;;;;;;;5089665;28;20028;-81
2022/05/10 15:08:14;;;;;;;18.23;12.15;;;;;;;;;;5096450;28;20020;-81
2022/05/10 15:10:42;;;;;;;18.30;12.98;;;;;;;;;;5097380;28;20501;-80
2022/05/10 15:13:09;;;;;;;19.92;13.85;;;;;;;;;;5095442;28;20051;-81
2022/05/10 15:15:37;;;;;;;21.80;13.48;;;;;;;;;;5095902;28;20054;-81